Time;durP1;ratioP1;P1;durP2;ratioP2;P2;SDS_P1;SDS_P2;PMS_P1;PMS_P2;Temp;Humidity;BMP_temperature;BMP_pressure;BME280_temperature;BME280_humidity;BME280_pressure;Samples;Min_cycle;Max_cycle;Signal;HPM_P1;HPM_P2
2021/08/03 00:01:06;;;;;;;0.80;0.50;;;24.20;43.60;;;;;;5048952;28;20036;-59
2021/08/03 00:03:38;;;;;;;1.23;0.50;;;24.20;43.70;;;;;;5051310;28;20040;-56
2021/08/03 00:06:16;;;;;;;0.80;0.50;;;24.20;43.60;;;;;;5047011;28;20037;-59
2021/08/03 00:08:45;;;;;;;0.57;0.32;;;24.20;43.60;;;;;;5050079;28;20455;-60
2021/08/03 00:11:11;;;;;;;0.65;0.43;;;24.10;43.60;;;;;;5053972;28;20446;-58
2021/08/03 00:13:39;;;;;;;1.00;0.43;;;24.20;43.70;;;;;;5050131;28;20035;-60
2021/08/03 00:16:10;;;;;;;1.33;0.65;;;24.10;43.70;;;;;;5034483;28;20095;-56
2021/08/03 00:18:40;;;;;;;0.43;0.40;;;24.20;43.70;;;;;;5052634;28;20047;-60
2021/08/03 00:21:07;;;;;;;0.60;0.40;;;24.10;43.70;;;;;;5054734;28;20041;-58
2021/08/03 00:23:36;;;;;;;0.60;0.40;;;24.10;43.70;;;;;;5053886;28;20032;-59
2021/08/03 00:26:03;;;;;;;0.70;0.50;;;24.10;43.70;;;;;;5035826;28;20045;-59
2021/08/03 00:28:31;;;;;;;0.60;0.30;;;24.10;43.80;;;;;;5049577;28;20119;-60
2021/08/03 00:30:57;;;;;;;0.98;0.55;;;24.10;43.80;;;;;;5052614;28;20025;-58
2021/08/03 00:33:22;;;;;;;1.52;0.60;;;24.10;43.80;;;;;;5053966;28;20025;-58
2021/08/03 00:35:50;;;;;;;0.75;0.50;;;24.10;43.80;;;;;;5049219;28;20079;-58
2021/08/03 00:38:17;;;;;;;0.80;0.45;;;24.00;43.90;;;;;;5054489;28;20033;-57
2021/08/03 00:40:58;;;;;;;0.60;0.40;;;24.00;43.80;;;;;;5051695;28;20405;-57
2021/08/03 00:43:26;;;;;;;0.68;0.30;;;24.10;43.90;;;;;;5052274;28;20446;-58
2021/08/03 00:45:52;;;;;;;0.75;0.57;;;24.10;44.60;;;;;;5053880;28;20033;-54
2021/08/03 00:48:18;;;;;;;0.60;0.50;;;24.10;44.00;;;;;;5037076;28;20111;-58
2021/08/03 00:50:45;;;;;;;0.57;0.45;;;24.00;43.90;;;;;;5035779;28;20025;-59
2021/08/03 00:53:11;;;;;;;0.40;0.40;;;24.00;44.00;;;;;;5052039;28;20049;-58
2021/08/03 00:55:40;;;;;;;1.23;0.30;;;24.00;44.00;;;;;;5033488;28;20029;-60
2021/08/03 00:58:07;;;;;;;0.63;0.50;;;24.00;44.00;;;;;;5036370;28;20017;-59
2021/08/03 01:00:33;;;;;;;0.75;0.32;;;24.00;44.00;;;;;;5035656;28;20124;-58
2021/08/03 01:03:01;;;;;;;0.55;0.40;;;24.00;44.00;;;;;;5051539;28;20029;-61
2021/08/03 01:05:34;;;;;;;0.65;0.40;;;24.00;44.00;;;;;;5054043;28;20036;-56
2021/08/03 01:08:04;;;;;;;0.40;0.35;;;24.00;44.00;;;;;;5036079;28;20501;-61
2021/08/03 01:10:45;;;;;;;0.47;0.30;;;24.00;44.10;;;;;;5033479;28;20029;-56
2021/08/03 01:13:35;;;;;;;0.70;0.40;;;24.00;44.10;;;;;;5035680;28;20029;-59
2021/08/03 01:16:21;;;;;;;0.52;0.28;;;24.00;44.10;;;;;;5032363;28;20025;-58
2021/08/03 01:19:18;;;;;;;0.52;0.40;;;23.90;44.00;;;;;;5052010;28;20037;-57
2021/08/03 01:22:11;;;;;;;1.08;0.50;;;23.90;44.10;;;;;;5031108;28;20464;-60
2021/08/03 01:24:46;;;;;;;1.30;0.40;;;23.90;44.10;;;;;;5054227;28;20029;-62
2021/08/03 01:27:45;;;;;;;0.60;0.32;;;23.90;44.20;;;;;;5036899;28;20024;-59
2021/08/03 01:30:12;;;;;;;0.30;0.30;;;23.90;44.20;;;;;;5054593;28;20037;-55
2021/08/03 01:32:41;;;;;;;0.50;0.22;;;23.90;44.20;;;;;;5054903;28;20024;-56
2021/08/03 01:35:09;;;;;;;0.88;0.50;;;23.90;44.30;;;;;;5036819;28;20028;-57
2021/08/03 01:37:35;;;;;;;0.77;0.40;;;23.90;44.30;;;;;;5036898;28;20044;-57
2021/08/03 01:40:10;;;;;;;0.73;0.43;;;23.90;44.30;;;;;;5036577;28;20037;-60
2021/08/03 01:42:42;;;;;;;0.60;0.30;;;23.90;44.60;;;;;;5053756;28;20039;-57
2021/08/03 01:45:11;;;;;;;0.30;0.30;;;23.90;44.30;;;;;;5036561;28;20412;-58
2021/08/03 01:47:37;;;;;;;0.40;0.30;;;23.90;44.30;;;;;;5035566;28;21495;-61
2021/08/03 01:50:07;;;;;;;0.40;0.40;;;23.90;44.30;;;;;;5036537;28;20035;-56
2021/08/03 01:52:34;;;;;;;1.60;0.40;;;23.90;44.30;;;;;;5035613;28;20043;-56
2021/08/03 01:55:04;;;;;;;0.65;0.45;;;23.90;44.40;;;;;;5036300;28;20094;-57
2021/08/03 01:57:41;;;;;;;0.70;0.50;;;23.80;44.30;;;;;;5034598;28;20087;-54
2021/08/03 02:00:12;;;;;;;0.30;0.30;;;23.80;44.40;;;;;;5052360;28;20437;-59
2021/08/03 02:03:01;;;;;;;2.08;0.40;;;23.80;44.40;;;;;;5035534;28;20514;-59
2021/08/03 02:05:27;;;;;;;0.47;0.35;;;23.80;44.50;;;;;;5054312;28;20056;-60
2021/08/03 02:08:01;;;;;;;;;;;23.80;44.50;;;;;;5035828;28;20032;-56
2021/08/03 02:10:29;;;;;;;0.65;0.40;;;23.80;44.50;;;;;;5035924;28;19908;-58
2021/08/03 02:12:55;;;;;;;0.93;0.38;;;23.80;44.60;;;;;;5053326;28;20111;-60
2021/08/03 02:15:22;;;;;;;0.70;0.40;;;23.70;44.50;;;;;;5036630;28;20037;-60
2021/08/03 02:17:50;;;;;;;0.40;0.30;;;23.70;44.50;;;;;;5035493;28;20029;-59
2021/08/03 02:20:25;;;;;;;0.60;0.40;;;23.70;44.60;;;;;;5035058;28;20059;-54
2021/08/03 02:22:57;;;;;;;0.95;0.43;;;23.70;44.60;;;;;;5035663;28;20123;-58
2021/08/03 02:25:27;;;;;;;0.43;0.32;;;23.80;44.60;;;;;;5035305;28;20037;-56
2021/08/03 02:27:55;;;;;;;0.57;0.30;;;23.70;44.60;;;;;;5035379;28;20021;-57
2021/08/03 02:30:22;;;;;;;0.75;0.40;;;23.70;44.60;;;;;;5035045;28;20033;-55
2021/08/03 02:33:22;;;;;;;0.73;0.40;;;23.70;44.60;;;;;;5035770;28;20033;-55
2021/08/03 02:36:02;;;;;;;0.43;0.25;;;23.70;44.60;;;;;;5035533;28;20441;-55
2021/08/03 02:38:31;;;;;;;0.63;0.30;;;23.70;44.70;;;;;;5032457;28;20160;-57
2021/08/03 02:40:57;;;;;;;1.00;0.32;;;23.70;44.70;;;;;;5035286;28;20099;-58
2021/08/03 02:43:32;;;;;;;0.43;0.30;;;23.70;44.80;;;;;;5035020;28;20204;-54
2021/08/03 02:46:03;;;;;;;0.63;0.43;;;23.70;44.80;;;;;;5035540;28;20031;-60
2021/08/03 02:48:31;;;;;;;0.60;0.30;;;23.70;44.80;;;;;;5051907;28;20049;-57
2021/08/03 02:50:58;;;;;;;0.65;0.30;;;23.70;44.80;;;;;;5052999;28;20029;-54
2021/08/03 02:53:35;;;;;;;0.40;0.30;;;23.70;44.80;;;;;;5053729;28;20032;-62
2021/08/03 02:56:14;;;;;;;0.20;0.20;;;23.70;44.80;;;;;;5034301;28;20467;-58
2021/08/03 02:58:49;;;;;;;0.55;0.30;;;23.70;44.80;;;;;;5052370;28;20036;-59
2021/08/03 03:01:19;;;;;;;0.40;0.30;;;23.70;44.90;;;;;;5032458;28;20116;-57
2021/08/03 03:03:50;;;;;;;0.20;0.20;;;23.70;44.90;;;;;;5034947;28;20036;-58
2021/08/03 03:06:22;;;;;;;0.35;0.30;;;23.70;44.90;;;;;;5034432;28;20368;-59
2021/08/03 03:08:53;;;;;;;0.38;0.30;;;23.60;44.90;;;;;;5033255;28;20127;-58
2021/08/03 03:11:21;;;;;;;0.47;0.25;;;23.70;44.90;;;;;;5034688;28;20118;-58
2021/08/03 03:13:56;;;;;;;1.00;0.60;;;23.60;44.90;;;;;;5052387;28;20044;-54
2021/08/03 03:16:25;;;;;;;1.27;0.45;;;23.60;44.90;;;;;;5034889;28;20119;-57
2021/08/03 03:18:55;;;;;;;1.08;0.40;;;23.60;44.90;;;;;;5052023;28;20107;-56
2021/08/03 03:21:23;;;;;;;0.43;0.30;;;23.60;45.00;;;;;;5033545;28;20466;-55
2021/08/03 03:23:53;;;;;;;0.50;0.38;;;23.60;45.00;;;;;;5035576;28;20056;-60
2021/08/03 03:26:25;;;;;;;0.22;0.22;;;23.60;45.00;;;;;;5053308;28;20067;-59
2021/08/03 03:28:53;;;;;;;0.40;0.30;;;23.60;45.00;;;;;;5035358;28;20052;-56
2021/08/03 03:31:20;;;;;;;0.98;0.32;;;23.60;45.70;;;;;;5053118;28;20064;-59
2021/08/03 03:33:51;;;;;;;0.30;0.20;;;23.60;45.00;;;;;;5054189;28;20111;-59
2021/08/03 03:36:21;;;;;;;0.50;0.47;;;23.60;45.00;;;;;;5053414;28;20379;-59
2021/08/03 03:38:48;;;;;;;2.08;0.30;;;23.60;45.10;;;;;;5035548;28;20033;-59
2021/08/03 03:41:15;;;;;;;0.95;0.50;;;23.60;45.10;;;;;;5035374;28;20413;-57
2021/08/03 03:43:41;;;;;;;0.30;0.30;;;23.60;45.10;;;;;;5053157;28;20048;-56
2021/08/03 03:46:12;;;;;;;0.40;0.30;;;23.60;45.20;;;;;;5053568;28;20043;-55
2021/08/03 03:48:44;;;;;;;0.20;0.20;;;23.60;45.20;;;;;;5035325;28;20391;-56
2021/08/03 03:51:17;;;;;;;1.05;0.52;;;23.60;45.20;;;;;;5035812;28;20102;-58
2021/08/03 03:53:48;;;;;;;0.50;0.40;;;23.60;45.20;;;;;;5035175;28;20040;-58
2021/08/03 03:56:17;;;;;;;0.68;0.38;;;23.60;45.20;;;;;;5052986;28;20099;-56
2021/08/03 03:58:58;;;;;;;0.55;0.30;;;23.50;45.20;;;;;;5034794;28;20025;-59
2021/08/03 04:01:27;;;;;;;0.65;0.40;;;23.60;45.30;;;;;;5035528;28;20074;-59
2021/08/03 04:03:55;;;;;;;0.20;0.20;;;23.50;45.30;;;;;;5051555;28;20025;-60
2021/08/03 04:06:21;;;;;;;0.43;0.30;;;23.60;45.30;;;;;;5052932;28;20037;-56
2021/08/03 04:08:47;;;;;;;0.30;0.30;;;23.60;45.30;;;;;;5053169;28;20029;-57
2021/08/03 04:11:14;;;;;;;0.20;0.20;;;23.60;45.30;;;;;;5034639;28;20049;-59
2021/08/03 04:13:44;;;;;;;0.93;0.40;;;23.50;45.40;;;;;;5053401;28;20033;-59
2021/08/03 04:16:10;;;;;;;0.90;0.50;;;23.50;45.40;;;;;;5035109;28;20107;-59
2021/08/03 04:18:36;;;;;;;0.70;0.40;;;23.50;45.40;;;;;;5052859;28;20457;-58
2021/08/03 04:21:03;;;;;;;0.68;0.30;;;23.50;45.40;;;;;;5052767;28;20123;-57
2021/08/03 04:23:29;;;;;;;2.00;0.40;;;23.50;45.40;;;;;;5052840;28;20376;-56
2021/08/03 04:25:55;;;;;;;0.45;0.30;;;23.50;45.50;;;;;;5053285;28;20033;-58
2021/08/03 04:28:21;;;;;;;0.82;0.45;;;23.50;45.50;;;;;;5052723;28;20456;-55
2021/08/03 04:30:47;;;;;;;0.20;0.20;;;23.50;45.50;;;;;;5053398;28;20116;-56
2021/08/03 04:33:13;;;;;;;0.47;0.35;;;23.50;45.60;;;;;;5052737;28;20029;-58
2021/08/03 04:35:39;;;;;;;0.40;0.32;;;23.50;45.60;;;;;;5052726;28;20111;-56
2021/08/03 04:38:05;;;;;;;0.55;0.30;;;23.50;45.50;;;;;;5052605;28;20493;-60
2021/08/03 04:40:31;;;;;;;0.50;0.30;;;23.50;45.50;;;;;;5052854;28;20079;-59
2021/08/03 04:42:57;;;;;;;0.75;0.40;;;23.50;45.50;;;;;;5035112;28;20063;-59
2021/08/03 04:45:24;;;;;;;0.45;0.30;;;23.50;45.50;;;;;;5052671;28;20029;-61
2021/08/03 04:47:52;;;;;;;0.32;0.30;;;23.50;45.50;;;;;;5046523;28;20091;-59
2021/08/03 04:50:19;;;;;;;0.68;0.40;;;23.50;45.40;;;;;;5051825;28;20085;-60
2021/08/03 04:52:45;;;;;;;0.40;0.30;;;23.50;45.40;;;;;;5052823;28;20029;-56
2021/08/03 04:55:11;;;;;;;0.50;0.40;;;23.50;45.40;;;;;;5055762;28;20043;-56
2021/08/03 04:57:37;;;;;;;1.10;0.50;;;23.50;45.40;;;;;;5055587;28;20033;-54
2021/08/03 05:00:06;;;;;;;0.40;0.30;;;23.50;46.00;;;;;;5055727;28;20045;-59
2021/08/03 05:02:31;;;;;;;0.88;0.40;;;23.50;45.40;;;;;;5056561;28;20072;-56
2021/08/03 05:04:57;;;;;;;0.75;0.40;;;23.50;45.40;;;;;;5055572;28;20057;-59
2021/08/03 05:07:23;;;;;;;0.30;0.30;;;23.50;46.00;;;;;;5055913;28;20116;-56
2021/08/03 05:09:49;;;;;;;0.88;0.40;;;23.50;45.40;;;;;;5056347;28;20065;-57
2021/08/03 05:12:14;;;;;;;0.70;0.40;;;23.40;45.30;;;;;;5056072;28;20463;-58
2021/08/03 05:14:40;;;;;;;1.27;0.50;;;23.40;45.40;;;;;;5055993;28;20129;-58
2021/08/03 05:17:06;;;;;;;0.75;0.43;;;23.50;45.40;;;;;;5055911;28;20029;-59
2021/08/03 05:19:32;;;;;;;0.95;0.40;;;23.50;45.40;;;;;;5055957;28;20166;-58
2021/08/03 05:21:57;;;;;;;0.73;0.45;;;23.50;45.40;;;;;;5055537;28;20070;-59
2021/08/03 05:24:26;;;;;;;0.40;0.20;;;23.50;45.40;;;;;;5050070;28;20482;-57
2021/08/03 05:26:55;;;;;;;0.60;0.30;;;23.40;45.40;;;;;;5055633;28;20028;-58
2021/08/03 05:29:21;;;;;;;0.90;0.40;;;23.50;45.40;;;;;;5055718;28;20417;-57
2021/08/03 05:31:47;;;;;;;0.60;0.40;;;23.50;45.50;;;;;;5054789;28;20124;-58
2021/08/03 05:34:13;;;;;;;0.82;0.50;;;23.40;45.40;;;;;;5055936;28;20050;-59
2021/08/03 05:36:39;;;;;;;0.40;0.30;;;23.50;45.50;;;;;;5055467;28;20044;-60
2021/08/03 05:39:11;;;;;;;1.23;0.40;;;23.50;45.50;;;;;;5055389;28;20033;-57
2021/08/03 05:41:37;;;;;;;0.30;0.30;;;23.50;45.50;;;;;;5055403;28;20076;-57
2021/08/03 05:44:03;;;;;;;0.20;0.20;;;23.50;45.50;;;;;;5037781;28;20049;-60
2021/08/03 05:46:28;;;;;;;0.47;0.40;;;23.50;45.50;;;;;;5055268;28;20056;-55
2021/08/03 05:48:54;;;;;;;0.90;0.32;;;23.50;45.50;;;;;;5055451;28;20124;-54
2021/08/03 05:51:20;;;;;;;0.63;0.30;;;23.50;46.20;;;;;;5055469;28;20033;-58
2021/08/03 05:53:45;;;;;;;0.40;0.40;;;23.50;45.60;;;;;;5055063;28;20071;-56
2021/08/03 05:56:11;;;;;;;0.45;0.30;;;23.50;45.60;;;;;;5037429;28;20037;-57
2021/08/03 05:58:37;;;;;;;0.70;0.43;;;23.50;45.60;;;;;;5055650;28;20036;-54
2021/08/03 06:01:03;;;;;;;0.30;0.30;;;23.50;45.70;;;;;;5028860;28;20040;-55
2021/08/03 06:03:28;;;;;;;0.38;0.38;;;23.50;45.70;;;;;;5052113;28;20033;-58
2021/08/03 06:05:54;;;;;;;0.77;0.38;;;23.50;45.70;;;;;;5054685;28;20037;-58
2021/08/03 06:08:25;;;;;;;1.25;0.47;;;23.50;45.80;;;;;;5055177;28;20039;-52
2021/08/03 06:10:54;;;;;;;0.30;0.30;;;23.50;45.80;;;;;;5054916;28;20094;-56
2021/08/03 06:13:24;;;;;;;1.05;0.40;;;23.50;45.80;;;;;;5036382;28;20045;-59
2021/08/03 06:15:51;;;;;;;0.50;0.50;;;23.50;45.80;;;;;;5055202;28;20128;-58
2021/08/03 06:18:31;;;;;;;0.60;0.50;;;23.50;45.90;;;;;;5055102;28;20056;-57
2021/08/03 06:20:58;;;;;;;2.13;0.57;;;23.50;45.80;;;;;;5054017;28;20041;-60
2021/08/03 06:23:25;;;;;;;0.20;0.20;;;23.50;45.90;;;;;;5054641;28;20115;-59
2021/08/03 06:25:58;;;;;;;1.20;0.45;;;23.50;45.90;;;;;;5054655;28;20108;-58
2021/08/03 06:28:24;;;;;;;0.40;0.40;;;23.50;45.90;;;;;;5053879;28;20041;-58
2021/08/03 06:30:52;;;;;;;0.40;0.32;;;23.50;45.90;;;;;;5054071;28;20395;-58
2021/08/03 06:33:19;;;;;;;0.30;0.22;;;23.50;45.90;;;;;;5054810;28;20357;-58
2021/08/03 06:35:46;;;;;;;0.75;0.40;;;23.50;45.90;;;;;;5054421;28;20017;-56
2021/08/03 06:38:13;;;;;;;1.33;0.65;;;23.50;46.00;;;;;;5035755;28;20087;-59
2021/08/03 06:40:46;;;;;;;0.98;0.52;;;23.50;46.00;;;;;;5054261;28;20048;-57
2021/08/03 06:43:17;;;;;;;0.93;0.57;;;23.50;46.00;;;;;;5053847;28;20098;-60
2021/08/03 06:45:48;;;;;;;0.80;0.40;;;23.50;46.10;;;;;;5053994;28;20127;-56
2021/08/03 06:48:22;;;;;;;1.17;0.55;;;23.50;46.20;;;;;;5054333;28;20083;-60
2021/08/03 06:51:01;;;;;;;0.75;0.63;;;23.50;46.20;;;;;;5036005;28;20414;-59
2021/08/03 06:53:29;;;;;;;0.95;0.50;;;23.60;46.20;;;;;;5053448;28;20043;-60
2021/08/03 06:55:57;;;;;;;1.02;0.50;;;23.60;46.20;;;;;;5052600;28;20535;-57
2021/08/03 06:58:58;;;;;;;0.60;0.40;;;23.60;46.20;;;;;;5046130;28;20037;-53
2021/08/03 07:01:41;;;;;;;1.65;0.43;;;23.70;46.10;;;;;;5040277;28;20037;-58
2021/08/03 07:04:12;;;;;;;0.30;0.30;;;23.70;46.00;;;;;;5056586;28;20337;-58
2021/08/03 07:06:43;;;;;;;1.05;0.50;;;23.70;45.90;;;;;;5052399;28;20036;-58
2021/08/03 07:09:09;;;;;;;0.90;0.52;;;23.80;45.90;;;;;;5053113;28;20108;-60
2021/08/03 07:11:37;;;;;;;0.50;0.30;;;23.80;45.90;;;;;;5053168;28;20087;-60
2021/08/03 07:14:04;;;;;;;1.30;0.80;;;23.80;45.80;;;;;;5052426;28;20395;-59
2021/08/03 07:16:31;;;;;;;0.70;0.40;;;23.90;45.90;;;;;;5052553;28;20136;-58
2021/08/03 07:18:57;;;;;;;0.45;0.40;;;23.90;45.80;;;;;;5052200;28;20041;-60
2021/08/03 07:21:27;;;;;;;0.73;0.30;;;23.90;45.80;;;;;;5067388;28;20040;-58
2021/08/03 07:23:57;;;;;;;0.55;0.50;;;24.00;45.80;;;;;;5064197;28;20029;-58
2021/08/03 07:26:26;;;;;;;0.82;0.50;;;24.00;45.80;;;;;;5051653;28;20082;-60
2021/08/03 07:28:52;;;;;;;0.88;0.50;;;24.00;45.70;;;;;;5051525;28;20043;-57
2021/08/03 07:31:18;;;;;;;0.40;0.30;;;24.00;45.70;;;;;;5052787;28;20082;-57
2021/08/03 07:33:44;;;;;;;0.50;0.35;;;24.00;45.70;;;;;;5052465;28;20032;-58
2021/08/03 07:36:12;;;;;;;1.15;0.47;;;24.00;45.70;;;;;;5053154;28;20025;-60
2021/08/03 07:38:38;;;;;;;0.68;0.50;;;24.10;45.80;;;;;;5052077;28;20392;-58
2021/08/03 07:41:04;;;;;;;1.80;0.75;;;24.10;45.70;;;;;;5051303;28;20033;-57
2021/08/03 07:43:29;;;;;;;0.68;0.50;;;24.10;45.70;;;;;;5051359;28;20025;-58
2021/08/03 07:45:55;;;;;;;0.85;0.50;;;24.10;45.70;;;;;;5051074;28;20075;-58
2021/08/03 07:48:21;;;;;;;0.60;0.60;;;24.10;45.70;;;;;;5051118;28;20037;-57
2021/08/03 07:50:47;;;;;;;1.05;0.57;;;24.10;45.70;;;;;;5051328;28;20025;-58
2021/08/03 07:53:13;;;;;;;0.82;0.40;;;24.20;45.80;;;;;;5052082;28;20025;-59
2021/08/03 07:55:39;;;;;;;1.75;0.98;;;24.20;45.70;;;;;;5049009;28;20071;-58
2021/08/03 07:58:05;;;;;;;1.02;0.68;;;24.20;45.70;;;;;;5050991;28;20025;-56
2021/08/03 08:00:32;;;;;;;0.75;0.50;;;24.20;45.70;;;;;;5050703;28;20029;-54
2021/08/03 08:02:58;;;;;;;2.40;0.70;;;24.20;45.70;;;;;;5050122;28;20040;-57
2021/08/03 08:05:24;;;;;;;1.38;0.65;;;24.20;45.60;;;;;;5033076;28;20025;-52
2021/08/03 08:07:57;;;;;;;0.55;0.50;;;24.20;45.60;;;;;;5041783;28;20036;-60
2021/08/03 08:10:23;;;;;;;1.15;0.60;;;24.20;45.60;;;;;;5042723;28;20025;-58
2021/08/03 08:12:49;;;;;;;1.17;0.63;;;24.20;45.60;;;;;;5046645;28;20449;-57
2021/08/03 08:15:15;;;;;;;0.63;0.43;;;24.30;45.60;;;;;;5046512;28;20097;-58
2021/08/03 08:17:41;;;;;;;0.73;0.43;;;24.30;45.60;;;;;;5046978;28;20021;-57
2021/08/03 08:20:12;;;;;;;0.52;0.40;;;24.30;45.60;;;;;;5053200;28;20032;-56
2021/08/03 08:22:42;;;;;;;1.30;0.88;;;24.30;45.60;;;;;;5051465;28;20352;-57
2021/08/03 08:25:10;;;;;;;1.42;0.50;;;24.30;45.60;;;;;;5050673;28;20033;-61
2021/08/03 08:27:39;;;;;;;0.60;0.52;;;24.30;45.60;;;;;;5033115;28;20041;-59
2021/08/03 08:30:06;;;;;;;1.13;0.70;;;24.30;45.50;;;;;;5018303;28;20116;-56
2021/08/03 08:32:32;;;;;;;0.93;0.60;;;24.30;45.50;;;;;;5054578;28;20429;-54
2021/08/03 08:34:57;;;;;;;1.63;0.60;;;24.30;45.50;;;;;;5045753;28;20044;-56
2021/08/03 08:37:26;;;;;;;1.05;0.65;;;24.30;45.60;;;;;;5045522;28;20506;-58
2021/08/03 08:39:55;;;;;;;1.05;0.70;;;24.30;45.60;;;;;;5054072;28;20072;-57
2021/08/03 08:42:21;;;;;;;1.00;0.60;;;24.30;45.70;;;;;;5055880;28;20037;-59
2021/08/03 08:44:49;;;;;;;1.25;0.70;;;24.30;45.70;;;;;;5056237;28;20025;-58
2021/08/03 08:47:18;;;;;;;3.35;0.68;;;24.40;45.80;;;;;;5055055;28;20036;-57
2021/08/03 08:49:47;;;;;;;0.73;0.55;;;24.40;45.80;;;;;;5042752;28;20413;-59
2021/08/03 08:52:14;;;;;;;1.00;0.50;;;24.40;45.80;;;;;;5055988;28;20367;-55
2021/08/03 08:54:41;;;;;;;0.73;0.50;;;24.40;45.80;;;;;;5055931;28;20033;-57
2021/08/03 08:57:08;;;;;;;1.67;0.65;;;24.50;45.80;;;;;;5054836;28;20344;-57
2021/08/03 08:59:34;;;;;;;1.00;0.80;;;24.50;45.80;;;;;;5055365;28;20075;-60
2021/08/03 09:02:00;;;;;;;1.20;0.65;;;24.50;45.70;;;;;;5054625;28;20040;-59
2021/08/03 09:04:26;;;;;;;1.27;0.57;;;24.50;45.70;;;;;;5055826;28;20429;-58
2021/08/03 09:07:08;;;;;;;1.55;0.85;;;24.50;45.70;;;;;;5055457;28;20368;-55
2021/08/03 09:09:44;;;;;;;1.92;0.80;;;24.50;45.60;;;;;;5055815;28;20044;-58
2021/08/03 09:12:12;;;;;;;0.95;0.73;;;24.50;45.60;;;;;;5055242;28;20057;-58
2021/08/03 09:14:43;;;;;;;1.15;0.77;;;24.50;45.60;;;;;;5055306;28;20021;-61
2021/08/03 09:17:24;;;;;;;1.23;0.80;;;24.60;45.60;;;;;;5054743;28;20123;-60
2021/08/03 09:19:50;;;;;;;2.05;1.23;;;24.60;45.60;;;;;;5036335;28;20474;-59
2021/08/03 09:22:24;;;;;;;1.17;0.80;;;24.60;45.60;;;;;;5054731;28;20033;-58
2021/08/03 09:24:52;;;;;;;1.48;0.85;;;24.60;45.60;;;;;;5055109;28;20029;-57
2021/08/03 09:27:41;;;;;;;1.15;0.57;;;24.60;45.60;;;;;;5053561;28;20072;-60
2021/08/03 09:30:25;;;;;;;1.30;0.88;;;24.60;45.60;;;;;;5052172;28;20033;-60
2021/08/03 09:32:51;;;;;;;0.98;0.70;;;24.60;45.60;;;;;;5026095;28;20340;-58
2021/08/03 09:35:19;;;;;;;1.30;1.02;;;24.60;45.60;;;;;;5055078;28;20124;-55
2021/08/03 09:37:47;;;;;;;1.80;0.75;;;24.60;45.60;;;;;;5054845;28;20033;-58
2021/08/03 09:40:26;;;;;;;1.08;0.93;;;24.60;46.20;;;;;;5053727;28;20047;-58
2021/08/03 09:43:03;;;;;;;1.20;0.73;;;24.60;45.60;;;;;;5053072;28;20037;-56
2021/08/03 09:45:35;;;;;;;2.15;1.00;;;24.60;45.60;;;;;;5054732;28;20052;-57
2021/08/03 09:48:28;;;;;;;1.10;0.65;;;24.60;45.60;;;;;;5054313;28;20021;-55
2021/08/03 09:50:58;;;;;;;1.27;0.70;;;24.70;45.60;;;;;;5033483;28;20040;-60
2021/08/03 09:53:43;;;;;;;1.77;1.00;;;24.60;45.60;;;;;;5054144;28;20029;-59
2021/08/03 09:56:37;;;;;;;1.40;0.90;;;24.70;45.60;;;;;;5054675;28;20033;-55
2021/08/03 09:59:07;;;;;;;1.80;1.27;;;24.70;45.60;;;;;;5053089;28;20094;-57
2021/08/03 10:01:40;;;;;;;1.73;1.17;;;24.70;45.70;;;;;;5050047;28;20036;-59
2021/08/03 10:04:08;;;;;;;2.15;1.15;;;24.70;45.60;;;;;;5051831;28;20029;-59
2021/08/03 10:06:35;;;;;;;1.45;1.10;;;24.70;45.60;;;;;;5054290;28;20523;-57
2021/08/03 10:09:03;;;;;;;1.98;0.98;;;24.70;45.60;;;;;;5054031;28;20028;-58
2021/08/03 10:11:29;;;;;;;2.25;1.33;;;24.70;45.60;;;;;;5054363;28;20361;-58
2021/08/03 10:13:56;;;;;;;3.15;1.30;;;24.80;45.70;;;;;;5054123;28;20029;-54
2021/08/03 10:16:23;;;;;;;2.30;1.23;;;24.70;45.60;;;;;;5054089;28;20079;-56
2021/08/03 10:18:51;;;;;;;1.70;1.20;;;24.80;45.70;;;;;;5035561;28;20045;-58
2021/08/03 10:21:27;;;;;;;2.03;1.20;;;24.80;45.70;;;;;;5054223;28;20037;-58
2021/08/03 10:24:01;;;;;;;2.55;1.38;;;24.80;45.70;;;;;;5048923;28;20103;-58
2021/08/03 10:26:27;;;;;;;2.45;1.30;;;24.80;45.70;;;;;;5053553;28;20037;-60
2021/08/03 10:29:25;;;;;;;1.63;1.02;;;24.80;45.70;;;;;;5053869;28;20029;-58
2021/08/03 10:31:52;;;;;;;1.98;1.40;;;24.80;45.70;;;;;;5052415;28;20079;-60
2021/08/03 10:34:42;;;;;;;2.20;1.48;;;24.80;45.80;;;;;;5053864;28;20385;-59
2021/08/03 10:37:13;;;;;;;2.08;1.50;;;24.80;45.70;;;;;;5053496;28;20063;-60
2021/08/03 10:39:55;;;;;;;3.72;1.40;;;24.80;45.80;;;;;;5053152;28;20448;-61
2021/08/03 10:42:22;;;;;;;2.13;1.38;;;24.80;46.40;;;;;;5052978;28;20131;-60
2021/08/03 10:45:01;;;;;;;1.38;1.23;;;24.80;45.70;;;;;;5053609;28;20024;-60
2021/08/03 10:47:33;;;;;;;2.03;1.40;;;24.90;45.80;;;;;;5053746;28;20029;-62
2021/08/03 10:50:26;;;;;;;3.13;1.55;;;24.90;45.80;;;;;;5053553;28;20352;-57
2021/08/03 10:52:53;;;;;;;2.25;1.70;;;24.90;45.80;;;;;;5052009;28;20145;-59
2021/08/03 10:55:28;;;;;;;2.15;1.90;;;24.90;45.90;;;;;;5047183;28;20155;-60
2021/08/03 10:58:09;;;;;;;3.13;1.85;;;25.00;45.80;;;;;;5051086;28;20032;-56
2021/08/03 11:00:42;;;;;;;2.60;1.98;;;25.00;45.80;;;;;;5050105;28;20057;-58
2021/08/03 11:03:30;;;;;;;2.03;1.80;;;25.00;45.70;;;;;;5052375;28;20127;-57
2021/08/03 11:05:56;;;;;;;2.70;1.85;;;25.00;45.60;;;;;;5035145;28;20041;-58
2021/08/03 11:08:32;;;;;;;2.58;1.90;;;25.00;45.60;;;;;;5052432;28;20053;-57
2021/08/03 11:11:07;;;;;;;2.78;2.00;;;25.00;45.50;;;;;;5052359;28;20077;-54
2021/08/03 11:13:43;;;;;;;3.70;2.30;;;25.00;45.50;;;;;;5052430;28;20036;-56
2021/08/03 11:16:18;;;;;;;2.30;2.05;;;25.00;45.40;;;;;;5052339;28;20377;-57
2021/08/03 11:18:45;;;;;;;3.17;2.20;;;25.00;45.30;;;;;;5035243;28;20065;-59
2021/08/03 11:21:18;;;;;;;2.85;1.92;;;25.00;45.20;;;;;;5040227;28;20057;-57
2021/08/03 11:24:05;;;;;;;3.20;2.03;;;25.00;45.10;;;;;;5039153;28;20025;-58
2021/08/03 11:26:55;;;;;;;1.75;1.60;;;25.00;45.00;;;;;;5046109;28;20029;-57
2021/08/03 11:29:24;;;;;;;2.75;1.58;;;25.00;45.00;;;;;;5039034;28;20083;-61
2021/08/03 11:31:53;;;;;;;2.70;2.13;;;25.00;45.10;;;;;;5053178;28;20072;-54
2021/08/03 11:34:33;;;;;;;3.22;1.92;;;25.00;45.10;;;;;;5052792;28;20415;-57
2021/08/03 11:37:00;;;;;;;3.03;2.20;;;25.10;45.00;;;;;;5053117;28;20036;-58
2021/08/03 11:39:37;;;;;;;2.95;2.13;;;25.10;45.10;;;;;;5033373;28;20063;-52
2021/08/03 11:42:04;;;;;;;2.95;2.13;;;25.10;45.00;;;;;;5049336;28;20083;-56
2021/08/03 11:44:31;;;;;;;2.38;1.83;;;25.10;45.00;;;;;;5051046;28;20452;-56
2021/08/03 11:47:00;;;;;;;2.63;1.98;;;25.10;45.00;;;;;;5050050;28;20037;-57
2021/08/03 11:49:54;;;;;;;2.17;1.85;;;25.10;45.00;;;;;;5051260;28;20380;-58
2021/08/03 11:52:22;;;;;;;1.80;1.70;;;25.20;45.10;;;;;;5032371;28;20052;-58
2021/08/03 11:54:51;;;;;;;2.35;1.88;;;25.20;45.10;;;;;;5051141;28;20041;-57
2021/08/03 11:57:31;;;;;;;2.85;1.88;;;25.20;45.10;;;;;;5050548;28;20380;-57
2021/08/03 12:00:10;;;;;;;2.60;2.25;;;25.20;45.10;;;;;;5047851;28;20040;-58
2021/08/03 12:02:39;;;;;;;2.03;1.80;;;25.20;45.10;;;;;;5050809;28;20044;-57
2021/08/03 12:05:33;;;;;;;2.60;2.00;;;25.30;45.10;;;;;;5037101;28;20044;-59
2021/08/03 12:08:13;;;;;;;2.60;1.90;;;25.30;44.90;;;;;;5054818;28;20047;-57
2021/08/03 12:10:48;;;;;;;2.00;1.80;;;25.20;44.80;;;;;;5055538;28;20037;-57
2021/08/03 12:13:34;;;;;;;2.50;1.60;;;25.20;44.60;;;;;;5034853;28;20075;-60
2021/08/03 12:16:02;;;;;;;2.90;1.88;;;25.30;44.50;;;;;;5052707;28;20453;-56
2021/08/03 12:18:41;;;;;;;2.50;1.77;;;25.20;44.40;;;;;;5055355;28;20033;-53
2021/08/03 12:21:09;;;;;;;2.38;1.70;;;25.30;44.30;;;;;;5055269;28;20102;-59
2021/08/03 12:23:36;;;;;;;2.28;1.63;;;25.20;44.40;;;;;;5054709;28;20083;-61
2021/08/03 12:26:06;;;;;;;2.38;1.60;;;25.20;44.30;;;;;;5054403;28;20028;-53
2021/08/03 12:28:43;;;;;;;2.08;1.80;;;25.20;44.80;;;;;;5055706;28;20136;-57
2021/08/03 12:31:17;;;;;;;2.25;1.85;;;25.20;44.10;;;;;;5056287;28;20086;-59
2021/08/03 12:33:43;;;;;;;2.95;1.60;;;25.20;44.10;;;;;;5055591;28;20090;-60
2021/08/03 12:36:15;;;;;;;2.58;1.60;;;25.20;44.10;;;;;;5056331;28;20029;-56
2021/08/03 12:39:00;;;;;;;2.35;1.65;;;25.20;44.00;;;;;;5054611;28;20044;-57
2021/08/03 12:41:30;;;;;;;2.67;1.85;;;25.20;44.00;;;;;;5055607;28;20040;-60
2021/08/03 12:44:00;;;;;;;1.92;1.40;;;25.20;44.00;;;;;;5056266;28;20044;-60
2021/08/03 12:46:36;;;;;;;1.73;1.50;;;25.20;43.90;;;;;;5056319;28;20037;-60
2021/08/03 12:49:03;;;;;;;2.70;1.83;;;25.20;43.80;;;;;;5055577;28;20128;-59
2021/08/03 12:51:31;;;;;;;1.90;1.60;;;25.20;43.90;;;;;;5055457;28;20109;-57
2021/08/03 12:54:30;;;;;;;1.92;1.50;;;25.20;43.80;;;;;;5055132;28;20031;-59
2021/08/03 12:56:58;;;;;;;1.60;1.50;;;25.20;43.70;;;;;;5001361;28;20045;-57
2021/08/03 12:59:44;;;;;;;1.77;1.63;;;25.20;43.80;;;;;;5048828;28;20030;-57
2021/08/03 13:02:15;;;;;;;2.45;1.40;;;25.20;43.70;;;;;;5053416;28;20427;-59
2021/08/03 13:04:42;;;;;;;2.00;1.65;;;25.20;43.80;;;;;;5037366;28;20377;-61
2021/08/03 13:07:08;;;;;;;1.75;1.52;;;25.20;43.80;;;;;;5054716;28;20432;-54